LFGA METAR and TAF | Updated Today

LFGA METAR

Colmar-Houssen Airport

Observation time: 25 min. ago

LFGA 011430Z AUTO 21007KT 170V280 9999 BKN043 OVC049 08/M00 Q1026

Need help? Read our tutorial on how to read METARs or read the parsed version below.

Colmar-Houssen Airport (LFGA) METAR

  • Weather conditions on Wed, 01 Feb 2023 14:30:00 +0000 (25 min. ago):
  • Present conditions: Dry
  • Clouds: Broken sky at 1311 meters; overcast sky at 1494 meters
  • Visibility: Greater than 10 km
  • Wind: 210 degrees at 7 knots
  • Temperature: 8 celsius
  • Dew point: 0 celsius
  • Pressure: 1026 millibars
  • Remarks: None


Useful to know...

  • Codes: LFGA/CMR
  • Airport elevation: 628ft
  • Municipality: Colmar/Houssen
  • Country: France
  • Continent: Europe